sensor_id;sensor_type;location;lat;lon;timestamp;P1;durP1;ratioP1;P2;durP2;ratioP2
22894;SDS011;11614;52.494;6.976;2023-06-19T00:01:35;7.10;;;6.03;;
22894;SDS011;11614;52.494;6.976;2023-06-19T00:04:01;7.85;;;6.90;;
22894;SDS011;11614;52.494;6.976;2023-06-19T00:06:27;9.02;;;6.63;;
22894;SDS011;11614;52.494;6.976;2023-06-19T00:08:53;7.95;;;7.18;;
22894;SDS011;11614;52.494;6.976;2023-06-19T00:11:19;8.40;;;7.05;;
22894;SDS011;11614;52.494;6.976;2023-06-19T00:13:45;9.32;;;6.25;;
22894;SDS011;11614;52.494;6.976;2023-06-19T00:16:11;9.63;;;7.10;;
22894;SDS011;11614;52.494;6.976;2023-06-19T00:18:36;9.98;;;6.60;;
22894;SDS011;11614;52.494;6.976;2023-06-19T00:21:05;8.63;;;6.80;;
22894;SDS011;11614;52.494;6.976;2023-06-19T00:23:32;8.88;;;6.63;;
22894;SDS011;11614;52.494;6.976;2023-06-19T00:25:59;8.32;;;6.20;;
22894;SDS011;11614;52.494;6.976;2023-06-19T00:28:26;7.47;;;4.97;;
22894;SDS011;11614;52.494;6.976;2023-06-19T00:30:52;9.77;;;6.80;;
22894;SDS011;11614;52.494;6.976;2023-06-19T00:33:18;7.55;;;6.75;;
22894;SDS011;11614;52.494;6.976;2023-06-19T00:35:44;7.50;;;6.05;;
22894;SDS011;11614;52.494;6.976;2023-06-19T00:38:10;9.55;;;6.63;;
22894;SDS011;11614;52.494;6.976;2023-06-19T00:40:37;8.48;;;6.80;;
22894;SDS011;11614;52.494;6.976;2023-06-19T00:43:03;8.05;;;6.65;;
22894;SDS011;11614;52.494;6.976;2023-06-19T00:45:28;9.43;;;6.90;;
22894;SDS011;11614;52.494;6.976;2023-06-19T00:47:55;9.13;;;6.80;;
22894;SDS011;11614;52.494;6.976;2023-06-19T00:50:22;9.25;;;6.50;;
22894;SDS011;11614;52.494;6.976;2023-06-19T00:52:48;8.13;;;6.70;;
22894;SDS011;11614;52.494;6.976;2023-06-19T00:55:14;9.35;;;6.25;;
22894;SDS011;11614;52.494;6.976;2023-06-19T00:57:41;7.28;;;5.95;;
22894;SDS011;11614;52.494;6.976;2023-06-19T01:00:07;8.93;;;6.32;;
22894;SDS011;11614;52.494;6.976;2023-06-19T01:02:34;6.75;;;6.03;;
22894;SDS011;11614;52.494;6.976;2023-06-19T01:05:00;8.50;;;6.28;;
22894;SDS011;11614;52.494;6.976;2023-06-19T01:07:28;9.98;;;7.00;;
22894;SDS011;11614;52.494;6.976;2023-06-19T01:10:02;8.32;;;6.63;;
22894;SDS011;11614;52.494;6.976;2023-06-19T01:12:34;7.15;;;6.45;;
22894;SDS011;11614;52.494;6.976;2023-06-19T01:15:05;8.07;;;6.47;;
22894;SDS011;11614;52.494;6.976;2023-06-19T01:17:32;8.02;;;6.15;;
22894;SDS011;11614;52.494;6.976;2023-06-19T01:20:00;7.18;;;6.05;;
22894;SDS011;11614;52.494;6.976;2023-06-19T01:22:31;7.93;;;6.80;;
22894;SDS011;11614;52.494;6.976;2023-06-19T01:24:57;8.02;;;6.85;;
22894;SDS011;11614;52.494;6.976;2023-06-19T01:27:23;9.10;;;6.88;;
22894;SDS011;11614;52.494;6.976;2023-06-19T01:29:56;7.40;;;6.63;;
22894;SDS011;11614;52.494;6.976;2023-06-19T01:32:31;7.72;;;6.05;;
22894;SDS011;11614;52.494;6.976;2023-06-19T01:35:07;7.53;;;6.72;;
22894;SDS011;11614;52.494;6.976;2023-06-19T01:37:34;7.07;;;6.28;;
22894;SDS011;11614;52.494;6.976;2023-06-19T01:40:02;8.60;;;6.93;;
22894;SDS011;11614;52.494;6.976;2023-06-19T01:42:30;8.98;;;7.03;;
22894;SDS011;11614;52.494;6.976;2023-06-19T01:44:57;8.82;;;6.45;;
22894;SDS011;11614;52.494;6.976;2023-06-19T01:47:22;9.25;;;6.65;;
22894;SDS011;11614;52.494;6.976;2023-06-19T01:49:49;8.80;;;6.25;;
22894;SDS011;11614;52.494;6.976;2023-06-19T01:52:14;8.77;;;6.60;;
22894;SDS011;11614;52.494;6.976;2023-06-19T01:54:40;8.07;;;6.57;;
22894;SDS011;11614;52.494;6.976;2023-06-19T01:57:06;9.02;;;7.13;;
22894;SDS011;11614;52.494;6.976;2023-06-19T01:59:33;8.60;;;6.65;;
22894;SDS011;11614;52.494;6.976;2023-06-19T02:01:58;6.90;;;5.88;;
22894;SDS011;11614;52.494;6.976;2023-06-19T02:04:24;8.15;;;6.10;;
22894;SDS011;11614;52.494;6.976;2023-06-19T02:06:49;8.27;;;6.18;;
22894;SDS011;11614;52.494;6.976;2023-06-19T02:09:15;8.35;;;6.40;;
22894;SDS011;11614;52.494;6.976;2023-06-19T02:11:41;9.43;;;6.13;;
22894;SDS011;11614;52.494;6.976;2023-06-19T02:14:08;8.23;;;6.28;;
22894;SDS011;11614;52.494;6.976;2023-06-19T02:16:35;6.35;;;5.63;;
22894;SDS011;11614;52.494;6.976;2023-06-19T02:19:01;7.68;;;5.97;;
22894;SDS011;11614;52.494;6.976;2023-06-19T02:21:27;5.28;;;3.90;;
22894;SDS011;11614;52.494;6.976;2023-06-19T02:23:53;8.73;;;5.35;;
22894;SDS011;11614;52.494;6.976;2023-06-19T02:26:19;6.97;;;6.03;;
22894;SDS011;11614;52.494;6.976;2023-06-19T02:28:45;6.88;;;5.35;;
22894;SDS011;11614;52.494;6.976;2023-06-19T02:31:10;8.07;;;5.60;;
22894;SDS011;11614;52.494;6.976;2023-06-19T02:33:36;6.13;;;4.40;;
22894;SDS011;11614;52.494;6.976;2023-06-19T02:36:02;6.75;;;4.95;;
22894;SDS011;11614;52.494;6.976;2023-06-19T02:38:29;5.35;;;4.70;;
22894;SDS011;11614;52.494;6.976;2023-06-19T02:40:55;6.20;;;5.10;;
22894;SDS011;11614;52.494;6.976;2023-06-19T02:43:26;8.10;;;5.13;;
22894;SDS011;11614;52.494;6.976;2023-06-19T02:45:51;5.00;;;3.22;;
22894;SDS011;11614;52.494;6.976;2023-06-19T02:48:17;7.60;;;5.10;;
22894;SDS011;11614;52.494;6.976;2023-06-19T02:50:44;5.47;;;4.50;;
22894;SDS011;11614;52.494;6.976;2023-06-19T02:53:09;8.27;;;5.43;;
22894;SDS011;11614;52.494;6.976;2023-06-19T02:55:36;6.15;;;4.38;;
22894;SDS011;11614;52.494;6.976;2023-06-19T02:58:01;7.03;;;5.57;;
22894;SDS011;11614;52.494;6.976;2023-06-19T03:00:28;6.38;;;4.25;;
22894;SDS011;11614;52.494;6.976;2023-06-19T03:02:53;6.32;;;4.35;;
22894;SDS011;11614;52.494;6.976;2023-06-19T03:05:19;4.10;;;3.70;;
22894;SDS011;11614;52.494;6.976;2023-06-19T03:07:45;5.90;;;3.88;;
22894;SDS011;11614;52.494;6.976;2023-06-19T03:10:11;4.78;;;3.88;;
22894;SDS011;11614;52.494;6.976;2023-06-19T03:12:37;7.13;;;4.60;;
22894;SDS011;11614;52.494;6.976;2023-06-19T03:15:03;7.57;;;4.90;;
22894;SDS011;11614;52.494;6.976;2023-06-19T03:17:29;5.90;;;4.93;;
22894;SDS011;11614;52.494;6.976;2023-06-19T03:19:55;5.07;;;3.67;;
22894;SDS011;11614;52.494;6.976;2023-06-19T03:22:21;6.15;;;4.60;;
22894;SDS011;11614;52.494;6.976;2023-06-19T03:24:47;8.15;;;4.88;;
22894;SDS011;11614;52.494;6.976;2023-06-19T03:27:13;7.05;;;4.20;;
22894;SDS011;11614;52.494;6.976;2023-06-19T03:29:39;5.18;;;3.92;;
22894;SDS011;11614;52.494;6.976;2023-06-19T03:32:04;5.97;;;3.90;;
22894;SDS011;11614;52.494;6.976;2023-06-19T03:34:31;5.15;;;3.58;;
22894;SDS011;11614;52.494;6.976;2023-06-19T03:36:57;6.32;;;3.25;;
22894;SDS011;11614;52.494;6.976;2023-06-19T03:39:23;5.93;;;4.10;;
22894;SDS011;11614;52.494;6.976;2023-06-19T03:41:49;5.60;;;3.85;;
22894;SDS011;11614;52.494;6.976;2023-06-19T03:44:15;5.07;;;3.60;;
22894;SDS011;11614;52.494;6.976;2023-06-19T03:46:41;5.15;;;3.85;;
22894;SDS011;11614;52.494;6.976;2023-06-19T03:49:07;5.05;;;3.80;;
22894;SDS011;11614;52.494;6.976;2023-06-19T03:51:34;5.78;;;3.90;;
22894;SDS011;11614;52.494;6.976;2023-06-19T03:54:00;7.13;;;4.05;;
22894;SDS011;11614;52.494;6.976;2023-06-19T03:56:26;7.57;;;3.95;;
22894;SDS011;11614;52.494;6.976;2023-06-19T03:58:52;4.60;;;4.20;;
22894;SDS011;11614;52.494;6.976;2023-06-19T04:01:18;4.80;;;4.05;;
22894;SDS011;11614;52.494;6.976;2023-06-19T04:03:44;5.72;;;4.55;;
22894;SDS011;11614;52.494;6.976;2023-06-19T04:06:09;6.18;;;4.45;;
22894;SDS011;11614;52.494;6.976;2023-06-19T04:08:35;6.15;;;4.05;;
22894;SDS011;11614;52.494;6.976;2023-06-19T04:11:01;5.70;;;4.43;;
22894;SDS011;11614;52.494;6.976;2023-06-19T04:13:26;6.07;;;4.28;;
22894;SDS011;11614;52.494;6.976;2023-06-19T04:15:52;4.72;;;3.88;;
22894;SDS011;11614;52.494;6.976;2023-06-19T04:18:18;5.50;;;4.28;;
22894;SDS011;11614;52.494;6.976;2023-06-19T04:20:44;4.70;;;3.75;;
22894;SDS011;11614;52.494;6.976;2023-06-19T04:23:09;6.03;;;4.35;;
22894;SDS011;11614;52.494;6.976;2023-06-19T04:25:36;5.90;;;4.32;;
22894;SDS011;11614;52.494;6.976;2023-06-19T04:28:02;6.40;;;3.67;;
22894;SDS011;11614;52.494;6.976;2023-06-19T04:30:28;3.78;;;3.35;;
22894;SDS011;11614;52.494;6.976;2023-06-19T04:32:55;4.90;;;3.60;;
22894;SDS011;11614;52.494;6.976;2023-06-19T04:35:21;6.15;;;4.18;;
22894;SDS011;11614;52.494;6.976;2023-06-19T04:37:48;6.78;;;3.67;;
22894;SDS011;11614;52.494;6.976;2023-06-19T04:40:14;5.30;;;3.97;;
22894;SDS011;11614;52.494;6.976;2023-06-19T04:42:40;4.97;;;3.88;;
22894;SDS011;11614;52.494;6.976;2023-06-19T04:45:06;5.40;;;4.05;;
22894;SDS011;11614;52.494;6.976;2023-06-19T04:47:32;5.13;;;3.38;;
22894;SDS011;11614;52.494;6.976;2023-06-19T04:49:59;4.53;;;2.80;;
22894;SDS011;11614;52.494;6.976;2023-06-19T04:52:25;4.50;;;2.97;;
22894;SDS011;11614;52.494;6.976;2023-06-19T04:54:50;5.20;;;3.40;;
22894;SDS011;11614;52.494;6.976;2023-06-19T04:57:16;5.63;;;4.13;;
22894;SDS011;11614;52.494;6.976;2023-06-19T04:59:42;3.47;;;2.83;;
22894;SDS011;11614;52.494;6.976;2023-06-19T05:02:11;4.80;;;3.08;;
22894;SDS011;11614;52.494;6.976;2023-06-19T05:04:37;4.38;;;3.45;;
22894;SDS011;11614;52.494;6.976;2023-06-19T05:07:03;5.93;;;3.60;;
22894;SDS011;11614;52.494;6.976;2023-06-19T05:09:28;6.53;;;2.92;;
22894;SDS011;11614;52.494;6.976;2023-06-19T05:11:57;3.95;;;2.03;;
22894;SDS011;11614;52.494;6.976;2023-06-19T05:14:23;5.25;;;2.97;;
22894;SDS011;11614;52.494;6.976;2023-06-19T05:16:48;3.63;;;2.92;;
22894;SDS011;11614;52.494;6.976;2023-06-19T05:19:15;5.68;;;3.20;;
22894;SDS011;11614;52.494;6.976;2023-06-19T05:21:40;3.78;;;2.60;;
22894;SDS011;11614;52.494;6.976;2023-06-19T05:24:06;3.15;;;2.72;;
22894;SDS011;11614;52.494;6.976;2023-06-19T05:26:32;5.10;;;3.92;;
22894;SDS011;11614;52.494;6.976;2023-06-19T05:28:57;5.18;;;3.38;;
22894;SDS011;11614;52.494;6.976;2023-06-19T05:31:23;5.07;;;3.20;;
22894;SDS011;11614;52.494;6.976;2023-06-19T05:33:49;6.47;;;4.75;;
22894;SDS011;11614;52.494;6.976;2023-06-19T05:36:14;3.38;;;2.97;;
22894;SDS011;11614;52.494;6.976;2023-06-19T05:38:40;3.83;;;3.38;;
22894;SDS011;11614;52.494;6.976;2023-06-19T05:41:06;3.83;;;3.08;;
22894;SDS011;11614;52.494;6.976;2023-06-19T05:43:32;3.70;;;3.00;;
22894;SDS011;11614;52.494;6.976;2023-06-19T05:45:57;3.67;;;3.38;;
22894;SDS011;11614;52.494;6.976;2023-06-19T05:48:24;5.25;;;3.08;;
22894;SDS011;11614;52.494;6.976;2023-06-19T05:50:50;5.82;;;2.65;;
22894;SDS011;11614;52.494;6.976;2023-06-19T05:53:16;4.20;;;2.65;;
22894;SDS011;11614;52.494;6.976;2023-06-19T05:55:42;2.88;;;2.15;;
22894;SDS011;11614;52.494;6.976;2023-06-19T05:58:08;6.32;;;2.88;;
22894;SDS011;11614;52.494;6.976;2023-06-19T06:00:34;7.65;;;3.58;;
22894;SDS011;11614;52.494;6.976;2023-06-19T06:03:00;3.20;;;2.20;;
22894;SDS011;11614;52.494;6.976;2023-06-19T06:05:26;4.85;;;2.90;;
22894;SDS011;11614;52.494;6.976;2023-06-19T06:07:52;2.95;;;2.33;;
22894;SDS011;11614;52.494;6.976;2023-06-19T06:10:21;3.97;;;2.80;;
22894;SDS011;11614;52.494;6.976;2023-06-19T06:12:48;4.00;;;3.28;;
22894;SDS011;11614;52.494;6.976;2023-06-19T06:15:14;4.13;;;2.53;;
22894;SDS011;11614;52.494;6.976;2023-06-19T06:17:40;3.08;;;2.42;;
22894;SDS011;11614;52.494;6.976;2023-06-19T06:20:06;6.35;;;3.72;;
22894;SDS011;11614;52.494;6.976;2023-06-19T06:22:40;3.85;;;2.67;;
22894;SDS011;11614;52.494;6.976;2023-06-19T06:25:07;3.95;;;2.58;;
22894;SDS011;11614;52.494;6.976;2023-06-19T06:27:35;3.08;;;2.53;;
22894;SDS011;11614;52.494;6.976;2023-06-19T06:30:01;3.22;;;2.45;;
22894;SDS011;11614;52.494;6.976;2023-06-19T06:32:26;3.67;;;2.65;;
22894;SDS011;11614;52.494;6.976;2023-06-19T06:34:53;3.88;;;3.17;;
22894;SDS011;11614;52.494;6.976;2023-06-19T06:37:19;3.10;;;2.80;;
22894;SDS011;11614;52.494;6.976;2023-06-19T06:39:48;3.83;;;2.58;;
22894;SDS011;11614;52.494;6.976;2023-06-19T06:42:14;3.40;;;2.78;;
22894;SDS011;11614;52.494;6.976;2023-06-19T06:44:40;4.38;;;2.70;;
22894;SDS011;11614;52.494;6.976;2023-06-19T06:47:05;4.07;;;3.20;;
22894;SDS011;11614;52.494;6.976;2023-06-19T06:49:31;4.13;;;2.35;;
22894;SDS011;11614;52.494;6.976;2023-06-19T06:51:57;4.38;;;2.88;;
22894;SDS011;11614;52.494;6.976;2023-06-19T06:54:23;3.28;;;2.97;;
22894;SDS011;11614;52.494;6.976;2023-06-19T06:56:48;4.90;;;3.22;;
22894;SDS011;11614;52.494;6.976;2023-06-19T06:59:14;4.88;;;3.28;;
22894;SDS011;11614;52.494;6.976;2023-06-19T07:01:42;3.53;;;3.17;;
22894;SDS011;11614;52.494;6.976;2023-06-19T07:04:09;3.80;;;3.15;;
22894;SDS011;11614;52.494;6.976;2023-06-19T07:06:34;5.07;;;3.10;;
22894;SDS011;11614;52.494;6.976;2023-06-19T07:09:01;3.35;;;2.78;;
22894;SDS011;11614;52.494;6.976;2023-06-19T07:11:27;4.35;;;3.22;;
22894;SDS011;11614;52.494;6.976;2023-06-19T07:13:53;4.88;;;3.85;;
22894;SDS011;11614;52.494;6.976;2023-06-19T07:16:19;4.68;;;3.85;;
22894;SDS011;11614;52.494;6.976;2023-06-19T07:18:44;6.35;;;3.45;;
22894;SDS011;11614;52.494;6.976;2023-06-19T07:21:11;5.43;;;3.80;;
22894;SDS011;11614;52.494;6.976;2023-06-19T07:23:40;4.65;;;3.33;;
22894;SDS011;11614;52.494;6.976;2023-06-19T07:26:07;4.65;;;2.80;;
22894;SDS011;11614;52.494;6.976;2023-06-19T07:28:33;5.30;;;3.92;;
22894;SDS011;11614;52.494;6.976;2023-06-19T07:31:01;4.70;;;4.03;;
22894;SDS011;11614;52.494;6.976;2023-06-19T07:33:27;5.93;;;3.30;;
22894;SDS011;11614;52.494;6.976;2023-06-19T07:35:52;4.10;;;3.55;;
22894;SDS011;11614;52.494;6.976;2023-06-19T07:38:18;4.30;;;3.30;;
22894;SDS011;11614;52.494;6.976;2023-06-19T07:40:44;5.25;;;3.42;;
22894;SDS011;11614;52.494;6.976;2023-06-19T07:43:09;6.78;;;4.30;;
22894;SDS011;11614;52.494;6.976;2023-06-19T07:45:35;6.32;;;4.10;;
22894;SDS011;11614;52.494;6.976;2023-06-19T07:48:01;5.65;;;3.30;;
22894;SDS011;11614;52.494;6.976;2023-06-19T07:50:27;4.90;;;3.83;;
22894;SDS011;11614;52.494;6.976;2023-06-19T07:52:53;8.60;;;4.47;;
22894;SDS011;11614;52.494;6.976;2023-06-19T07:55:18;4.97;;;3.75;;
22894;SDS011;11614;52.494;6.976;2023-06-19T07:57:44;6.43;;;4.05;;
22894;SDS011;11614;52.494;6.976;2023-06-19T08:00:09;5.30;;;4.30;;
22894;SDS011;11614;52.494;6.976;2023-06-19T08:02:39;5.75;;;4.38;;
22894;SDS011;11614;52.494;6.976;2023-06-19T08:05:06;4.80;;;3.35;;
22894;SDS011;11614;52.494;6.976;2023-06-19T08:07:33;6.25;;;4.00;;
22894;SDS011;11614;52.494;6.976;2023-06-19T08:09:59;4.80;;;3.60;;
22894;SDS011;11614;52.494;6.976;2023-06-19T08:12:25;4.95;;;3.13;;
22894;SDS011;11614;52.494;6.976;2023-06-19T08:14:51;4.93;;;4.43;;
22894;SDS011;11614;52.494;6.976;2023-06-19T08:17:16;5.80;;;3.88;;
22894;SDS011;11614;52.494;6.976;2023-06-19T08:19:42;5.18;;;3.50;;
22894;SDS011;11614;52.494;6.976;2023-06-19T08:22:08;6.68;;;4.22;;
22894;SDS011;11614;52.494;6.976;2023-06-19T08:24:34;4.00;;;2.90;;
22894;SDS011;11614;52.494;6.976;2023-06-19T08:27:01;4.57;;;3.40;;
22894;SDS011;11614;52.494;6.976;2023-06-19T08:29:27;4.90;;;3.95;;
22894;SDS011;11614;52.494;6.976;2023-06-19T08:31:53;5.05;;;4.03;;
22894;SDS011;11614;52.494;6.976;2023-06-19T08:34:18;6.82;;;4.18;;
22894;SDS011;11614;52.494;6.976;2023-06-19T08:36:44;6.63;;;4.13;;
22894;SDS011;11614;52.494;6.976;2023-06-19T08:39:10;4.68;;;3.35;;
22894;SDS011;11614;52.494;6.976;2023-06-19T08:41:36;6.05;;;4.40;;
22894;SDS011;11614;52.494;6.976;2023-06-19T08:44:03;5.93;;;3.63;;
22894;SDS011;11614;52.494;6.976;2023-06-19T08:46:29;3.88;;;3.35;;
22894;SDS011;11614;52.494;6.976;2023-06-19T08:48:55;4.57;;;3.80;;
22894;SDS011;11614;52.494;6.976;2023-06-19T08:51:22;5.55;;;3.78;;
22894;SDS011;11614;52.494;6.976;2023-06-19T08:53:48;5.68;;;3.72;;
22894;SDS011;11614;52.494;6.976;2023-06-19T08:56:19;5.13;;;3.80;;
22894;SDS011;11614;52.494;6.976;2023-06-19T08:58:45;5.30;;;3.38;;
22894;SDS011;11614;52.494;6.976;2023-06-19T09:01:10;4.30;;;3.90;;
22894;SDS011;11614;52.494;6.976;2023-06-19T09:03:38;4.60;;;3.50;;
22894;SDS011;11614;52.494;6.976;2023-06-19T09:06:07;5.20;;;3.47;;
22894;SDS011;11614;52.494;6.976;2023-06-19T09:08:33;5.20;;;3.47;;
22894;SDS011;11614;52.494;6.976;2023-06-19T09:11:02;4.30;;;3.88;;
22894;SDS011;11614;52.494;6.976;2023-06-19T09:13:29;4.85;;;3.55;;
22894;SDS011;11614;52.494;6.976;2023-06-19T09:15:59;7.07;;;5.40;;
22894;SDS011;11614;52.494;6.976;2023-06-19T09:18:31;6.55;;;4.65;;
22894;SDS011;11614;52.494;6.976;2023-06-19T09:21:14;6.47;;;5.32;;
22894;SDS011;11614;52.494;6.976;2023-06-19T09:23:40;10.27;;;5.32;;
22894;SDS011;11614;52.494;6.976;2023-06-19T09:26:06;6.20;;;5.30;;
22894;SDS011;11614;52.494;6.976;2023-06-19T09:28:32;7.93;;;6.43;;
22894;SDS011;11614;52.494;6.976;2023-06-19T09:30:58;4.65;;;4.15;;
22894;SDS011;11614;52.494;6.976;2023-06-19T09:33:29;7.15;;;5.60;;
22894;SDS011;11614;52.494;6.976;2023-06-19T09:35:56;6.78;;;6.07;;
22894;SDS011;11614;52.494;6.976;2023-06-19T09:38:30;6.25;;;4.38;;
22894;SDS011;11614;52.494;6.976;2023-06-19T09:40:57;6.88;;;5.13;;
22894;SDS011;11614;52.494;6.976;2023-06-19T09:43:30;6.40;;;5.63;;
22894;SDS011;11614;52.494;6.976;2023-06-19T09:46:00;6.35;;;4.65;;
22894;SDS011;11614;52.494;6.976;2023-06-19T09:48:29;6.50;;;5.18;;
22894;SDS011;11614;52.494;6.976;2023-06-19T09:50:59;6.47;;;5.28;;
22894;SDS011;11614;52.494;6.976;2023-06-19T09:53:26;6.55;;;5.15;;
22894;SDS011;11614;52.494;6.976;2023-06-19T09:55:52;7.40;;;5.75;;
22894;SDS011;11614;52.494;6.976;2023-06-19T09:58:21;5.60;;;5.10;;
22894;SDS011;11614;52.494;6.976;2023-06-19T10:00:47;6.28;;;4.63;;
22894;SDS011;11614;52.494;6.976;2023-06-19T10:03:15;6.22;;;4.60;;
22894;SDS011;11614;52.494;6.976;2023-06-19T10:05:42;6.53;;;4.30;;
22894;SDS011;11614;52.494;6.976;2023-06-19T10:08:08;3.08;;;2.78;;
22894;SDS011;11614;52.494;6.976;2023-06-19T10:10:34;3.60;;;2.92;;
22894;SDS011;11614;52.494;6.976;2023-06-19T10:13:11;5.07;;;4.57;;
22894;SDS011;11614;52.494;6.976;2023-06-19T10:15:42;7.68;;;4.53;;
22894;SDS011;11614;52.494;6.976;2023-06-19T10:18:12;4.63;;;3.90;;
22894;SDS011;11614;52.494;6.976;2023-06-19T10:20:41;6.55;;;5.30;;
22894;SDS011;11614;52.494;6.976;2023-06-19T10:23:11;5.47;;;4.97;;
22894;SDS011;11614;52.494;6.976;2023-06-19T10:25:43;4.55;;;3.95;;
22894;SDS011;11614;52.494;6.976;2023-06-19T10:28:45;8.30;;;6.55;;
22894;SDS011;11614;52.494;6.976;2023-06-19T10:31:05;6.25;;;5.65;;
22894;SDS011;11614;52.494;6.976;2023-06-19T10:33:33;5.90;;;5.30;;
22894;SDS011;11614;52.494;6.976;2023-06-19T10:36:12;7.45;;;6.43;;
22894;SDS011;11614;52.494;6.976;2023-06-19T10:38:42;10.40;;;6.57;;
22894;SDS011;11614;52.494;6.976;2023-06-19T10:41:22;8.25;;;6.90;;
22894;SDS011;11614;52.494;6.976;2023-06-19T10:44:05;6.88;;;6.18;;
22894;SDS011;11614;52.494;6.976;2023-06-19T10:46:36;6.53;;;5.80;;
22894;SDS011;11614;52.494;6.976;2023-06-19T10:49:02;5.43;;;4.93;;
22894;SDS011;11614;52.494;6.976;2023-06-19T10:51:29;7.68;;;6.82;;
22894;SDS011;11614;52.494;6.976;2023-06-19T10:53:56;6.65;;;5.28;;
22894;SDS011;11614;52.494;6.976;2023-06-19T10:56:23;7.25;;;6.28;;
22894;SDS011;11614;52.494;6.976;2023-06-19T10:59:00;5.95;;;5.35;;
22894;SDS011;11614;52.494;6.976;2023-06-19T11:01:36;6.80;;;5.78;;
22894;SDS011;11614;52.494;6.976;2023-06-19T11:04:09;6.07;;;5.15;;
22894;SDS011;11614;52.494;6.976;2023-06-19T11:06:36;6.35;;;5.72;;
22894;SDS011;11614;52.494;6.976;2023-06-19T11:09:03;6.35;;;5.72;;
22894;SDS011;11614;52.494;6.976;2023-06-19T11:14:05;7.80;;;5.55;;
22894;SDS011;11614;52.494;6.976;2023-06-19T11:16:31;6.10;;;5.53;;
22894;SDS011;11614;52.494;6.976;2023-06-19T11:18:57;8.70;;;5.60;;
22894;SDS011;11614;52.494;6.976;2023-06-19T11:21:33;8.15;;;4.95;;
22894;SDS011;11614;52.494;6.976;2023-06-19T11:24:00;6.63;;;5.93;;
22894;SDS011;11614;52.494;6.976;2023-06-19T11:26:26;7.18;;;6.47;;
22894;SDS011;11614;52.494;6.976;2023-06-19T11:28:53;7.07;;;5.35;;
22894;SDS011;11614;52.494;6.976;2023-06-19T11:31:24;7.97;;;7.28;;
22894;SDS011;11614;52.494;6.976;2023-06-19T11:33:59;7.85;;;7.13;;
22894;SDS011;11614;52.494;6.976;2023-06-19T11:36:27;9.50;;;6.93;;
22894;SDS011;11614;52.494;6.976;2023-06-19T11:38:54;7.20;;;6.50;;
22894;SDS011;11614;52.494;6.976;2023-06-19T11:41:27;8.50;;;7.63;;
22894;SDS011;11614;52.494;6.976;2023-06-19T11:44:02;8.35;;;7.55;;
22894;SDS011;11614;52.494;6.976;2023-06-19T11:46:32;9.35;;;8.02;;
22894;SDS011;11614;52.494;6.976;2023-06-19T11:49:08;7.50;;;6.75;;
22894;SDS011;11614;52.494;6.976;2023-06-19T11:51:34;7.18;;;5.85;;
22894;SDS011;11614;52.494;6.976;2023-06-19T11:54:00;9.30;;;7.43;;
22894;SDS011;11614;52.494;6.976;2023-06-19T11:56:26;7.00;;;6.40;;
22894;SDS011;11614;52.494;6.976;2023-06-19T11:58:52;6.78;;;5.97;;
22894;SDS011;11614;52.494;6.976;2023-06-19T12:01:18;7.40;;;6.55;;
22894;SDS011;11614;52.494;6.976;2023-06-19T12:03:44;10.48;;;7.22;;
22894;SDS011;11614;52.494;6.976;2023-06-19T12:06:10;8.07;;;7.28;;
22894;SDS011;11614;52.494;6.976;2023-06-19T12:08:36;7.90;;;6.43;;
22894;SDS011;11614;52.494;6.976;2023-06-19T12:11:03;6.68;;;5.97;;
22894;SDS011;11614;52.494;6.976;2023-06-19T12:13:33;10.35;;;9.35;;
22894;SDS011;11614;52.494;6.976;2023-06-19T12:15:59;8.23;;;7.43;;
22894;SDS011;11614;52.494;6.976;2023-06-19T12:18:24;8.98;;;8.07;;
22894;SDS011;11614;52.494;6.976;2023-06-19T12:20:50;10.20;;;8.68;;
22894;SDS011;11614;52.494;6.976;2023-06-19T12:23:16;10.43;;;9.43;;
22894;SDS011;11614;52.494;6.976;2023-06-19T12:25:42;9.85;;;8.73;;
22894;SDS011;11614;52.494;6.976;2023-06-19T12:28:08;10.05;;;9.05;;
22894;SDS011;11614;52.494;6.976;2023-06-19T12:30:36;9.85;;;8.65;;
22894;SDS011;11614;52.494;6.976;2023-06-19T12:33:02;9.45;;;8.55;;
22894;SDS011;11614;52.494;6.976;2023-06-19T12:35:28;10.15;;;9.18;;
22894;SDS011;11614;52.494;6.976;2023-06-19T12:37:54;8.02;;;7.03;;
22894;SDS011;11614;52.494;6.976;2023-06-19T12:40:21;9.68;;;8.10;;
22894;SDS011;11614;52.494;6.976;2023-06-19T12:42:47;9.35;;;8.45;;
22894;SDS011;11614;52.494;6.976;2023-06-19T12:45:15;10.50;;;9.45;;
22894;SDS011;11614;52.494;6.976;2023-06-19T12:47:41;10.80;;;8.10;;
22894;SDS011;11614;52.494;6.976;2023-06-19T12:50:07;8.80;;;8.02;;
22894;SDS011;11614;52.494;6.976;2023-06-19T12:52:33;7.38;;;6.68;;
22894;SDS011;11614;52.494;6.976;2023-06-19T12:54:59;8.02;;;7.30;;
22894;SDS011;11614;52.494;6.976;2023-06-19T12:57:26;9.93;;;8.93;;
22894;SDS011;11614;52.494;6.976;2023-06-19T12:59:52;9.32;;;8.52;;
22894;SDS011;11614;52.494;6.976;2023-06-19T13:02:18;9.15;;;8.25;;
22894;SDS011;11614;52.494;6.976;2023-06-19T13:04:44;10.77;;;8.55;;
22894;SDS011;11614;52.494;6.976;2023-06-19T13:07:10;10.80;;;8.15;;
22894;SDS011;11614;52.494;6.976;2023-06-19T13:09:37;8.80;;;8.00;;
22894;SDS011;11614;52.494;6.976;2023-06-19T13:12:04;9.27;;;8.27;;
22894;SDS011;11614;52.494;6.976;2023-06-19T13:14:30;9.38;;;8.48;;
22894;SDS011;11614;52.494;6.976;2023-06-19T13:16:59;9.98;;;8.88;;
22894;SDS011;11614;52.494;6.976;2023-06-19T13:19:25;8.50;;;7.57;;
22894;SDS011;11614;52.494;6.976;2023-06-19T13:21:52;7.72;;;5.93;;
22894;SDS011;11614;52.494;6.976;2023-06-19T13:24:18;7.47;;;6.70;;
22894;SDS011;11614;52.494;6.976;2023-06-19T13:26:44;7.35;;;6.57;;
22894;SDS011;11614;52.494;6.976;2023-06-19T13:29:11;8.45;;;5.78;;
22894;SDS011;11614;52.494;6.976;2023-06-19T13:31:37;6.20;;;5.55;;
22894;SDS011;11614;52.494;6.976;2023-06-19T13:34:03;7.93;;;7.10;;
22894;SDS011;11614;52.494;6.976;2023-06-19T13:36:29;7.82;;;6.47;;
22894;SDS011;11614;52.494;6.976;2023-06-19T13:38:55;8.80;;;7.80;;
22894;SDS011;11614;52.494;6.976;2023-06-19T13:41:21;8.10;;;7.35;;
22894;SDS011;11614;52.494;6.976;2023-06-19T13:43:52;9.90;;;7.80;;
22894;SDS011;11614;52.494;6.976;2023-06-19T13:46:18;9.35;;;8.35;;
22894;SDS011;11614;52.494;6.976;2023-06-19T13:48:46;7.38;;;6.68;;
22894;SDS011;11614;52.494;6.976;2023-06-19T13:51:15;8.52;;;7.72;;
22894;SDS011;11614;52.494;6.976;2023-06-19T13:53:41;9.13;;;8.27;;
22894;SDS011;11614;52.494;6.976;2023-06-19T13:56:07;10.32;;;8.55;;
22894;SDS011;11614;52.494;6.976;2023-06-19T13:58:33;8.95;;;7.53;;
22894;SDS011;11614;52.494;6.976;2023-06-19T14:00:59;10.75;;;9.70;;
22894;SDS011;11614;52.494;6.976;2023-06-19T14:03:25;8.45;;;7.57;;
22894;SDS011;11614;52.494;6.976;2023-06-19T14:05:51;10.63;;;9.55;;
22894;SDS011;11614;52.494;6.976;2023-06-19T14:08:17;9.20;;;8.30;;
22894;SDS011;11614;52.494;6.976;2023-06-19T14:10:43;8.40;;;7.38;;
22894;SDS011;11614;52.494;6.976;2023-06-19T14:13:09;9.68;;;8.52;;
22894;SDS011;11614;52.494;6.976;2023-06-19T14:15:35;10.15;;;8.38;;
22894;SDS011;11614;52.494;6.976;2023-06-19T14:18:01;9.77;;;8.88;;
22894;SDS011;11614;52.494;6.976;2023-06-19T14:20:27;8.80;;;7.90;;
22894;SDS011;11614;52.494;6.976;2023-06-19T14:22:53;9.30;;;7.22;;
22894;SDS011;11614;52.494;6.976;2023-06-19T14:25:19;12.15;;;9.07;;
22894;SDS011;11614;52.494;6.976;2023-06-19T14:27:45;12.10;;;8.63;;
22894;SDS011;11614;52.494;6.976;2023-06-19T14:30:11;10.43;;;8.52;;
22894;SDS011;11614;52.494;6.976;2023-06-19T14:32:37;11.50;;;8.23;;
22894;SDS011;11614;52.494;6.976;2023-06-19T14:35:04;9.40;;;8.50;;
22894;SDS011;11614;52.494;6.976;2023-06-19T14:37:30;9.65;;;8.60;;
22894;SDS011;11614;52.494;6.976;2023-06-19T14:39:56;7.57;;;6.60;;
22894;SDS011;11614;52.494;6.976;2023-06-19T14:42:22;8.07;;;7.25;;
22894;SDS011;11614;52.494;6.976;2023-06-19T14:44:48;9.32;;;8.40;;
22894;SDS011;11614;52.494;6.976;2023-06-19T14:47:14;9.57;;;8.45;;
22894;SDS011;11614;52.494;6.976;2023-06-19T14:49:40;9.35;;;7.47;;